Time;durP1;ratioP1;P1;durP2;ratioP2;P2;SDS_P1;SDS_P2;PMS_P1;PMS_P2;Temp;Humidity;BMP_temperature;BMP_pressure;BME280_temperature;BME280_humidity;BME280_pressure;Samples;Min_cycle;Max_cycle;Signal;HPM_P1;HPM_P2
2023/05/21 15:21:56;;;;;;;17.50;16.30;;;32.90;30.00;;;;;;5560384;23;20490;-45
2023/05/21 15:24:22;;;;;;;19.07;17.97;;;32.60;31.00;;;;;;4822544;29;20451;-44
2023/05/21 15:26:48;;;;;;;17.03;15.93;;;32.60;31.00;;;;;;4820712;29;20182;-43
2023/05/21 15:29:14;;;;;;;17.10;16.10;;;32.60;31.00;;;;;;4830248;29;20266;-45
2023/05/21 15:31:40;;;;;;;17.17;16.17;;;32.30;30.60;;;;;;4827433;29;20419;-43
2023/05/21 15:34:05;;;;;;;16.10;15.20;;;32.20;30.50;;;;;;4828720;29;20185;-44
2023/05/21 15:36:31;;;;;;;16.07;15.07;;;32.00;30.50;;;;;;4827911;29;20181;-45
2023/05/21 15:38:56;;;;;;;15.70;14.80;;;32.00;30.10;;;;;;4825475;29;20258;-45
2023/05/21 15:41:22;;;;;;;17.60;16.50;;;31.80;29.90;;;;;;4827674;29;20282;-48
2023/05/21 15:43:48;;;;;;;16.40;15.40;;;31.80;30.00;;;;;;4831390;29;20188;-44
2023/05/21 15:46:13;;;;;;;18.00;16.80;;;31.80;30.00;;;;;;4824602;29;20217;-44
2023/05/21 15:48:39;;;;;;;18.80;17.70;;;31.60;30.10;;;;;;4823752;29;20206;-45
2023/05/21 15:51:05;;;;;;;16.27;15.20;;;31.70;30.40;;;;;;4824614;29;20190;-47
2023/05/21 15:53:30;;;;;;;17.10;16.10;;;31.70;30.20;;;;;;4825743;29;20648;-47
2023/05/21 15:55:56;;;;;;;15.97;15.07;;;31.80;29.90;;;;;;4823337;29;20651;-45
2023/05/21 15:58:21;;;;;;;15.90;14.90;;;31.50;29.70;;;;;;4825864;29;21091;-50
2023/05/21 16:00:47;;;;;;;16.70;15.70;;;31.50;30.00;;;;;;4822524;29;20197;-47
2023/05/21 16:03:12;;;;;;;16.60;15.70;;;31.40;29.90;;;;;;4819503;29;20535;-50
2023/05/21 16:05:38;;;;;;;16.43;15.53;;;31.40;30.00;;;;;;4816920;29;20194;-45
2023/05/21 16:08:04;;;;;;;16.30;15.40;;;31.20;30.60;;;;;;4820227;29;20270;-43
2023/05/21 16:10:29;;;;;;;16.30;15.30;;;31.10;31.10;;;;;;4812970;29;20262;-48
2023/05/21 16:12:55;;;;;;;15.53;14.63;;;31.10;31.30;;;;;;4821578;29;20178;-46
2023/05/21 16:15:20;;;;;;;15.77;14.87;;;31.10;31.50;;;;;;4818235;29;20192;-45
2023/05/21 16:17:46;;;;;;;16.20;15.20;;;31.20;31.20;;;;;;4806466;29;20639;-46
2023/05/21 16:20:12;;;;;;;17.03;16.13;;;31.00;31.70;;;;;;4813273;29;20193;-49
2023/05/21 16:22:39;;;;;;;16.40;15.50;;;31.00;31.90;;;;;;4811446;29;20329;-50
2023/05/21 16:25:05;;;;;;;17.90;16.80;;;30.90;31.40;;;;;;4814195;29;20226;-52
2023/05/21 16:27:30;;;;;;;16.83;15.83;;;30.70;31.70;;;;;;4798725;29;20531;-46
2023/05/21 16:29:57;;;;;;;17.40;16.40;;;30.60;32.20;;;;;;4817762;29;20490;-46
2023/05/21 16:32:22;;;;;;;17.93;16.77;;;30.70;32.20;;;;;;4815251;29;20182;-48
2023/05/21 16:34:48;;;;;;;16.63;15.73;;;30.80;32.20;;;;;;4816419;29;20442;-51
2023/05/21 16:37:14;;;;;;;16.37;15.37;;;30.70;31.70;;;;;;4818588;29;20194;-47
2023/05/21 16:39:39;;;;;;;16.17;15.17;;;30.70;31.60;;;;;;4819319;29;20201;-49
2023/05/21 16:42:05;;;;;;;16.80;15.70;;;30.50;31.90;;;;;;4828459;29;20219;-46
2023/05/21 16:44:31;;;;;;;16.50;15.60;;;30.60;32.20;;;;;;4818933;29;20602;-48
2023/05/21 16:46:57;;;;;;;16.40;15.40;;;30.50;32.40;;;;;;4821910;29;20197;-45
2023/05/21 16:49:23;;;;;;;17.70;16.50;;;30.40;32.50;;;;;;4823528;29;20206;-46
2023/05/21 16:51:48;;;;;;;17.43;16.43;;;30.20;31.60;;;;;;4818501;29;20482;-49
2023/05/21 16:54:14;;;;;;;16.00;15.10;;;30.20;31.80;;;;;;4822296;29;20205;-43
2023/05/21 16:56:39;;;;;;;16.23;15.33;;;30.10;31.60;;;;;;4818504;29;20186;-50
2023/05/21 16:59:05;;;;;;;16.30;15.30;;;30.10;31.60;;;;;;4821330;29;20178;-45
2023/05/21 17:01:30;;;;;;;16.33;15.30;;;30.10;31.60;;;;;;4818989;29;20500;-48
2023/05/21 17:03:56;;;;;;;15.67;14.80;;;30.00;31.70;;;;;;4822515;29;20197;-46
2023/05/21 17:06:22;;;;;;;17.03;16.13;;;29.90;32.00;;;;;;4804351;29;20189;-45
2023/05/21 17:08:48;;;;;;;17.67;16.57;;;29.90;32.30;;;;;;4821916;29;20301;-46
2023/05/21 17:11:16;;;;;;;16.83;15.93;;;29.80;32.30;;;;;;4820321;29;20513;-46
2023/05/21 17:13:41;;;;;;;16.47;15.43;;;29.60;32.10;;;;;;4820576;29;20190;-48
2023/05/21 17:16:07;;;;;;;16.87;15.77;;;29.30;32.80;;;;;;4822741;29;20431;-47
2023/05/21 17:18:32;;;;;;;16.43;15.40;;;29.00;33.10;;;;;;4815268;29;20245;-47
2023/05/21 17:20:58;;;;;;;17.80;16.60;;;28.80;33.50;;;;;;4820914;29;20280;-48
2023/05/21 17:23:24;;;;;;;17.57;16.37;;;28.70;34.10;;;;;;4820753;29;20310;-44
2023/05/21 17:25:50;;;;;;;17.03;15.93;;;28.50;34.40;;;;;;4819426;29;20277;-48
2023/05/21 17:28:16;;;;;;;17.33;16.23;;;28.20;34.90;;;;;;4820992;29;20435;-47
2023/05/21 17:30:42;;;;;;;16.37;15.37;;;28.00;35.60;;;;;;4819399;29;20470;-44
2023/05/21 17:33:08;;;;;;;17.37;16.23;;;27.90;36.20;;;;;;4818789;29;20186;-49
2023/05/21 17:35:34;;;;;;;16.40;15.30;;;27.80;36.20;;;;;;4799545;29;20729;-49
2023/05/21 17:38:00;;;;;;;16.10;15.10;;;27.60;36.10;;;;;;4814593;29;20534;-47
2023/05/21 17:40:25;;;;;;;17.57;16.47;;;27.40;36.60;;;;;;4814293;29;20294;-46
2023/05/21 17:42:51;;;;;;;17.23;16.13;;;27.10;36.10;;;;;;4819126;29;20189;-49
2023/05/21 17:45:17;;;;;;;16.97;15.97;;;26.80;36.80;;;;;;4816049;29;20358;-49
2023/05/21 17:47:43;;;;;;;16.77;15.70;;;26.70;37.70;;;;;;4799823;29;20446;-46
2023/05/21 17:50:09;;;;;;;15.70;14.70;;;26.50;37.90;;;;;;4820696;29;20202;-44
2023/05/21 17:52:34;;;;;;;15.10;14.20;;;26.30;38.60;;;;;;4819021;29;20190;-46
2023/05/21 17:55:00;;;;;;;16.90;15.80;;;26.10;39.00;;;;;;4822748;29;20442;-47
2023/05/21 17:57:26;;;;;;;16.60;15.30;;;26.00;39.70;;;;;;4813524;29;20187;-45
2023/05/21 17:59:51;;;;;;;16.20;15.10;;;25.90;40.10;;;;;;4819379;29;20205;-49
2023/05/21 18:02:17;;;;;;;16.73;15.63;;;25.70;40.50;;;;;;4819084;29;20182;-45
2023/05/21 18:04:43;;;;;;;15.30;14.27;;;25.60;40.90;;;;;;4818825;29;20582;-47
2023/05/21 18:07:08;;;;;;;16.10;15.10;;;25.50;41.60;;;;;;4821234;29;20224;-46
2023/05/21 18:09:34;;;;;;;15.00;14.10;;;25.30;42.40;;;;;;4819679;29;21046;-44
2023/05/21 18:12:01;;;;;;;17.07;16.07;;;25.20;42.70;;;;;;4819304;29;20264;-47
2023/05/21 18:14:27;;;;;;;15.70;14.50;;;25.00;43.20;;;;;;4818464;29;20202;-44
2023/05/21 18:16:52;;;;;;;15.33;14.33;;;24.70;43.50;;;;;;4818785;29;20485;-49
2023/05/21 18:19:18;;;;;;;16.27;15.17;;;24.60;44.30;;;;;;4818739;29;20213;-43
2023/05/21 18:21:44;;;;;;;16.70;15.70;;;24.50;44.60;;;;;;4819345;29;20890;-45
2023/05/21 18:24:09;;;;;;;16.27;15.17;;;24.40;45.20;;;;;;4817040;29;20320;-44
2023/05/21 18:26:35;;;;;;;16.10;14.90;;;24.30;45.60;;;;;;4819300;29;20434;-45
2023/05/21 18:29:00;;;;;;;16.00;14.80;;;24.20;46.00;;;;;;4816128;29;20612;-44
2023/05/21 18:31:26;;;;;;;17.13;15.83;;;24.10;46.90;;;;;;4815351;29;20399;-44
2023/05/21 18:33:52;;;;;;;16.07;15.07;;;24.00;47.40;;;;;;4819777;29;20194;-49
2023/05/21 18:36:17;;;;;;;15.40;14.40;;;23.80;47.60;;;;;;4810560;29;20202;-43
2023/05/21 18:38:43;;;;;;;16.37;15.27;;;23.70;47.80;;;;;;4816467;29;20246;-44
2023/05/21 18:41:09;;;;;;;17.17;16.07;;;23.60;48.70;;;;;;4817857;29;20208;-44
2023/05/21 18:43:34;;;;;;;16.57;15.57;;;23.40;48.20;;;;;;4818339;29;20186;-47
2023/05/21 18:46:00;;;;;;;15.80;14.80;;;23.20;48.30;;;;;;4816468;29;20213;-45
2023/05/21 18:48:26;;;;;;;16.33;15.13;;;23.10;49.20;;;;;;4813129;29;20194;-47
2023/05/21 18:50:52;;;;;;;17.97;16.67;;;23.00;49.40;;;;;;4818924;29;20201;-44
2023/05/21 18:53:18;;;;;;;17.73;16.33;;;22.80;50.20;;;;;;4821318;29;20209;-46
2023/05/21 18:55:43;;;;;;;18.30;17.17;;;22.70;50.20;;;;;;4820166;29;20194;-46
2023/05/21 18:58:09;;;;;;;17.33;16.23;;;22.60;50.70;;;;;;4819505;29;20447;-46
2023/05/21 19:00:36;;;;;;;15.33;14.23;;;22.50;51.40;;;;;;4819185;29;20193;-46
2023/05/21 19:03:02;;;;;;;15.87;14.87;;;22.40;51.60;;;;;;4814519;29;20280;-48
2023/05/21 19:05:28;;;;;;;16.30;15.10;;;22.30;51.70;;;;;;4825199;29;20529;-46
2023/05/21 19:07:53;;;;;;;17.43;16.33;;;22.20;51.90;;;;;;4819467;29;20205;-43
2023/05/21 19:10:19;;;;;;;16.40;15.03;;;22.10;52.10;;;;;;4818677;29;20218;-47
2023/05/21 19:12:45;;;;;;;16.27;15.17;;;22.10;52.70;;;;;;4820491;29;20193;-45
2023/05/21 19:15:11;;;;;;;16.80;15.80;;;22.00;53.10;;;;;;4803867;29;20186;-49
2023/05/21 19:17:38;;;;;;;15.07;14.07;;;21.90;53.60;;;;;;4819995;29;20189;-45
2023/05/21 19:20:05;;;;;;;16.97;15.97;;;21.80;54.10;;;;;;4819804;29;20198;-46
2023/05/21 19:22:31;;;;;;;16.33;15.17;;;21.80;54.80;;;;;;4818390;29;20520;-42
2023/05/21 19:24:57;;;;;;;16.43;15.33;;;21.70;55.20;;;;;;4820305;29;20436;-46
2023/05/21 19:27:22;;;;;;;16.13;14.90;;;21.70;55.70;;;;;;4819460;29;20589;-46
2023/05/21 19:29:48;;;;;;;15.67;14.57;;;21.60;56.40;;;;;;4817034;29;20292;-45
2023/05/21 19:32:17;;;;;;;15.53;14.50;;;21.50;57.30;;;;;;4818736;29;20201;-44
2023/05/21 19:34:43;;;;;;;14.97;14.07;;;21.40;58.20;;;;;;4818224;29;20563;-45
2023/05/21 19:37:08;;;;;;;15.30;14.00;;;21.40;59.30;;;;;;4819418;29;20447;-48
2023/05/21 19:39:40;;;;;;;16.57;15.47;;;21.30;60.20;;;;;;4818006;29;20974;-45
2023/05/21 19:42:07;;;;;;;16.10;15.00;;;21.20;61.70;;;;;;4818836;29;20201;-48
2023/05/21 19:44:32;;;;;;;17.17;15.97;;;21.10;63.30;;;;;;4819717;29;20474;-50
2023/05/21 19:46:59;;;;;;;16.53;15.43;;;21.10;65.30;;;;;;4819459;29;20462;-51
2023/05/21 19:49:25;;;;;;;16.63;15.37;;;21.00;66.50;;;;;;4820014;29;20227;-48
2023/05/21 19:51:53;;;;;;;16.43;15.33;;;21.00;68.00;;;;;;4820638;29;20423;-47
2023/05/21 19:54:19;;;;;;;17.17;16.00;;;20.90;69.60;;;;;;4819433;29;20193;-45
2023/05/21 19:56:45;;;;;;;17.27;16.13;;;20.90;71.00;;;;;;4820207;29;20973;-45
2023/05/21 19:59:11;;;;;;;17.27;16.17;;;20.80;72.50;;;;;;4807846;29;20667;-44
2023/05/21 20:01:38;;;;;;;16.23;15.13;;;20.70;73.80;;;;;;4813474;29;20367;-42
2023/05/21 20:04:04;;;;;;;17.10;15.90;;;20.70;75.30;;;;;;4819093;29;20965;-46
2023/05/21 20:06:30;;;;;;;17.50;16.20;;;20.60;76.90;;;;;;4819548;29;20462;-46
2023/05/21 20:08:56;;;;;;;16.00;14.90;;;20.50;78.60;;;;;;4819976;29;20985;-45
2023/05/21 20:11:22;;;;;;;17.63;16.43;;;20.50;80.00;;;;;;4818781;29;20186;-46
2023/05/21 20:13:49;;;;;;;17.50;16.30;;;20.40;82.10;;;;;;4816415;29;20194;-44
2023/05/21 20:16:18;;;;;;;17.13;16.03;;;20.30;84.70;;;;;;4820869;29;21090;-45
2023/05/21 20:18:47;;;;;;;16.67;15.37;;;20.20;86.20;;;;;;4819396;29;20836;-43
2023/05/21 20:21:17;;;;;;;16.67;15.47;;;20.20;86.90;;;;;;4820080;29;21009;-45
2023/05/21 20:23:44;;;;;;;17.20;16.00;;;20.10;88.10;;;;;;4819738;29;20514;-45
2023/05/21 20:26:10;;;;;;;17.20;15.90;;;20.10;90.10;;;;;;4820537;29;20988;-47
2023/05/21 20:28:36;;;;;;;18.77;17.47;;;20.00;91.90;;;;;;4821317;29;20450;-42
2023/05/21 20:31:02;;;;;;;18.37;17.07;;;19.90;92.30;;;;;;4817545;29;20899;-44
2023/05/21 20:33:30;;;;;;;19.13;17.70;;;19.80;93.00;;;;;;4823433;29;20431;-41
2023/05/21 20:35:56;;;;;;;18.70;17.30;;;19.70;94.00;;;;;;4823072;29;20435;-46
2023/05/21 20:38:24;;;;;;;17.73;16.53;;;19.60;95.00;;;;;;4819981;29;20495;-51
2023/05/21 20:40:51;;;;;;;18.60;17.40;;;19.50;95.80;;;;;;4824743;29;20349;-43
2023/05/21 20:43:17;;;;;;;18.20;17.00;;;19.40;96.20;;;;;;4822437;29;20427;-46
2023/05/21 20:45:46;;;;;;;19.13;17.73;;;19.30;96.90;;;;;;4821204;29;20443;-43
2023/05/21 20:48:13;;;;;;;19.47;17.97;;;19.20;98.00;;;;;;4816633;29;20479;-43
2023/05/21 20:50:43;;;;;;;17.73;16.43;;;19.10;98.60;;;;;;4822068;29;20481;-43
2023/05/21 20:53:10;;;;;;;19.20;17.80;;;19.10;99.30;;;;;;4821594;29;20434;-45
2023/05/21 20:55:36;;;;;;;17.77;16.57;;;19.00;99.90;;;;;;4820770;29;20513;-52
2023/05/21 20:58:03;;;;;;;18.70;17.40;;;18.90;99.90;;;;;;4820429;29;20538;-49
2023/05/21 21:00:32;;;;;;;18.70;17.50;;;18.80;99.90;;;;;;4822125;29;20463;-52
2023/05/21 21:02:59;;;;;;;18.87;17.37;;;18.80;99.90;;;;;;4821915;29;20423;-52
2023/05/21 21:05:26;;;;;;;17.90;16.70;;;18.60;99.90;;;;;;4821591;29;21025;-49
2023/05/21 21:07:52;;;;;;;18.33;17.10;;;18.60;99.90;;;;;;4819894;29;20451;-46
2023/05/21 21:10:19;;;;;;;18.67;17.37;;;18.50;99.90;;;;;;4819470;29;20478;-49
2023/05/21 21:12:44;;;;;;;17.73;16.47;;;18.40;99.90;;;;;;4820889;29;20439;-52
2023/05/21 21:15:10;;;;;;;18.83;17.43;;;18.40;99.90;;;;;;4821370;29;20466;-49
2023/05/21 21:17:36;;;;;;;17.67;16.40;;;18.30;99.90;;;;;;4820872;29;20194;-48
2023/05/21 21:20:02;;;;;;;17.43;16.13;;;18.20;99.90;;;;;;4820628;29;20198;-50
2023/05/21 21:22:29;;;;;;;18.80;17.50;;;18.10;99.90;;;;;;4809560;29;20248;-46
2023/05/21 21:24:54;;;;;;;19.90;18.40;;;18.10;99.90;;;;;;4821382;29;20435;-47
2023/05/21 21:27:20;;;;;;;18.80;17.50;;;18.10;99.90;;;;;;4820142;29;20491;-50
2023/05/21 21:29:45;;;;;;;19.73;18.30;;;18.00;99.90;;;;;;4821166;29;20633;-50
2023/05/21 21:32:11;;;;;;;17.87;16.57;;;18.00;99.90;;;;;;4820315;29;20194;-45
2023/05/21 21:34:37;;;;;;;18.67;17.27;;;17.90;99.90;;;;;;4821033;29;20208;-55
2023/05/21 21:37:03;;;;;;;18.70;17.30;;;17.90;99.90;;;;;;4815041;29;20209;-50
2023/05/21 21:39:28;;;;;;;17.87;16.60;;;17.80;99.90;;;;;;4814657;29;20190;-50
2023/05/21 21:41:54;;;;;;;18.20;16.90;;;17.80;99.90;;;;;;4821450;29;20447;-44
2023/05/21 21:44:20;;;;;;;18.50;17.10;;;17.70;99.90;;;;;;4821327;29;20292;-46
2023/05/21 21:46:46;;;;;;;19.30;17.90;;;17.70;99.90;;;;;;4820224;29;20221;-44
2023/05/21 21:49:13;;;;;;;17.90;16.70;;;17.60;99.90;;;;;;4821128;29;20202;-41
2023/05/21 21:51:38;;;;;;;19.73;18.33;;;17.50;99.90;;;;;;4820374;29;20299;-43
2023/05/21 21:54:04;;;;;;;19.80;18.40;;;17.50;99.90;;;;;;4820974;29;20514;-41
2023/05/21 21:56:30;;;;;;;19.50;18.00;;;17.40;99.90;;;;;;4820312;29;20319;-45
2023/05/21 21:58:55;;;;;;;20.13;18.73;;;17.40;99.90;;;;;;4821045;29;20193;-42
2023/05/21 22:01:21;;;;;;;18.80;17.50;;;17.30;99.90;;;;;;4820832;29;20193;-43
2023/05/21 22:03:47;;;;;;;20.07;18.57;;;17.30;99.90;;;;;;4821789;29;20724;-46
2023/05/21 22:06:12;;;;;;;18.93;17.53;;;17.30;99.90;;;;;;4821453;29;20627;-42
2023/05/21 22:08:38;;;;;;;18.93;17.63;;;17.30;99.90;;;;;;4820990;29;20201;-42
2023/05/21 22:11:03;;;;;;;19.00;17.60;;;17.20;99.90;;;;;;4820362;29;20614;-42
2023/05/21 22:13:29;;;;;;;20.20;18.70;;;17.20;99.90;;;;;;4817089;29;20183;-45
2023/05/21 22:15:54;;;;;;;18.77;17.37;;;17.20;99.90;;;;;;4817348;29;20194;-44
2023/05/21 22:18:22;;;;;;;18.00;16.60;;;17.10;99.90;;;;;;4820701;29;20182;-44
2023/05/21 22:20:47;;;;;;;18.60;17.23;;;17.10;99.90;;;;;;4820831;29;20564;-46
2023/05/21 22:23:13;;;;;;;18.77;17.47;;;17.00;99.90;;;;;;4819965;29;20493;-44
2023/05/21 22:25:40;;;;;;;19.20;17.80;;;17.00;99.90;;;;;;4820546;29;20189;-49
2023/05/21 22:28:05;;;;;;;19.43;17.93;;;16.90;99.90;;;;;;4816278;29;20202;-42
2023/05/21 22:30:31;;;;;;;19.33;17.93;;;16.80;99.90;;;;;;4817740;29;20471;-44
2023/05/21 22:32:57;;;;;;;18.30;17.00;;;16.80;99.90;;;;;;4819673;29;20212;-49
2023/05/21 22:35:22;;;;;;;18.87;17.57;;;16.80;99.90;;;;;;4819768;29;20269;-41
2023/05/21 22:37:48;;;;;;;19.07;17.70;;;16.80;99.90;;;;;;4819597;29;20193;-42
2023/05/21 22:40:13;;;;;;;19.00;17.50;;;16.70;99.90;;;;;;4820968;29;20620;-42
2023/05/21 22:42:40;;;;;;;18.83;17.43;;;16.60;99.90;;;;;;4819531;29;20190;-44
2023/05/21 22:45:07;;;;;;;21.10;19.40;;;16.60;99.90;;;;;;4820469;29;20198;-42
2023/05/21 22:47:35;;;;;;;19.47;18.07;;;16.60;99.90;;;;;;4820447;29;20475;-42
2023/05/21 22:50:03;;;;;;;20.40;18.80;;;16.50;99.90;;;;;;4818706;29;20843;-42
2023/05/21 22:52:29;;;;;;;19.87;18.27;;;16.50;99.90;;;;;;4820444;29;20447;-41
2023/05/21 22:54:56;;;;;;;20.33;18.73;;;16.40;99.90;;;;;;4819991;29;20499;-47
2023/05/21 22:57:22;;;;;;;20.53;19.00;;;16.40;99.90;;;;;;4820268;29;20434;-44
2023/05/21 22:59:47;;;;;;;18.80;17.33;;;16.40;99.90;;;;;;4819642;29;20881;-43
2023/05/21 23:02:15;;;;;;;19.97;18.37;;;16.40;99.90;;;;;;4819803;29;20301;-42
2023/05/21 23:04:40;;;;;;;20.27;18.80;;;16.30;99.90;;;;;;4820330;29;20270;-42
2023/05/21 23:07:06;;;;;;;20.50;18.90;;;16.30;99.90;;;;;;4820337;29;20474;-45
2023/05/21 23:09:31;;;;;;;20.10;18.60;;;16.30;99.90;;;;;;4819880;29;20209;-41
2023/05/21 23:11:57;;;;;;;20.63;19.00;;;16.30;99.90;;;;;;4819012;29;20653;-42
2023/05/21 23:14:23;;;;;;;20.70;18.97;;;16.30;99.90;;;;;;4819741;29;20189;-44
2023/05/21 23:16:48;;;;;;;21.20;19.60;;;16.20;99.90;;;;;;4812573;29;20225;-44
2023/05/21 23:19:14;;;;;;;20.60;19.00;;;16.20;99.90;;;;;;4820128;29;20185;-43
2023/05/21 23:21:41;;;;;;;20.07;18.57;;;16.20;99.90;;;;;;4819940;29;20200;-45
2023/05/21 23:24:07;;;;;;;21.57;19.77;;;16.10;99.90;;;;;;4819885;29;20491;-42
2023/05/21 23:26:33;;;;;;;20.20;18.60;;;16.10;99.90;;;;;;4818837;29;21005;-45
2023/05/21 23:28:59;;;;;;;20.40;18.70;;;16.10;99.90;;;;;;4819623;29;20593;-46
2023/05/21 23:31:26;;;;;;;20.67;19.13;;;16.00;99.90;;;;;;4819670;29;20186;-47
2023/05/21 23:33:52;;;;;;;19.97;18.57;;;16.00;99.90;;;;;;4819966;29;20535;-44
2023/05/21 23:36:18;;;;;;;21.03;19.33;;;15.90;99.90;;;;;;4819814;29;20462;-44
2023/05/21 23:38:43;;;;;;;22.13;20.23;;;15.90;99.90;;;;;;4819075;29;20254;-44
2023/05/21 23:41:09;;;;;;;20.70;19.10;;;15.80;99.90;;;;;;4818190;29;20182;-42
2023/05/21 23:43:35;;;;;;;21.13;19.53;;;15.70;99.90;;;;;;4801394;29;20243;-43
2023/05/21 23:46:01;;;;;;;20.97;19.37;;;15.70;99.90;;;;;;4810063;29;20216;-43
2023/05/21 23:48:26;;;;;;;19.83;18.30;;;15.60;99.90;;;;;;4816969;29;20190;-41
2023/05/21 23:50:52;;;;;;;21.30;19.70;;;15.60;99.90;;;;;;4823212;29;21098;-41
2023/05/21 23:53:18;;;;;;;20.80;19.10;;;15.50;99.90;;;;;;4822232;29;20194;-43
2023/05/21 23:55:44;;;;;;;20.43;18.73;;;15.50;99.90;;;;;;4818772;29;20248;-41
2023/05/21 23:58:10;;;;;;;21.50;19.70;;;15.50;99.90;;;;;;4819573;29;20621;-43
